Latest METARs, TAFs and NOTAMs for SKCL


---------------------------------------------------------------------------
	(OBSERVATIONS)
SKCL 251200Z 00000KT 9999 BKN036 SCT090 22/20 A2999 =
SKCL 251100Z VRB02KT 9999 SCT030 BKN120 22/20 A2998=
SKCL 251030Z 29004KT 9999 SCT030 BKN120 22/20 A2998=
SKCL 251000Z 00000KT 9999 SCT025 BKN120 21/20 A2997=
---------------------------------------------------------------------------
	(TERMINAL AREA FORECAST)
SKCL 251100Z 251212 03007KT 9999 FEW020 SCT100
    TEMPO 2518/2523 34010KT SCT020
    PROB40 2520/2522 8000 VCSH SCT017TCU
    TX31/2518Z TN20/2611Z=
---------------------------------------------------------------------------
	(NOTAMS)


SKCL A0108/15 RWY 01/19 TURNING BAY LTD, ACFT PROHIBITED PARALLEL
    OR ONE SURPASSES THE OTHER ACFT, EXER CTN. H24, 14 JAN 20:55
    2015 UNTIL 30 APR 23:59 2015. CREATED: 14 JAN 21:01 2015

SKCL A0109/15 APRON, CARGO APRON AND DECONGESTION APRON WIP,
    EXER CTN. H24, 14 JAN 21:15 2015 UNTIL 30 APR 23:59 2015.
    CREATED: 14 JAN 21:15 2015

SKCL A0248/15 FIRE FIGHTING AND RESCUE SERVICE CHG TO CAT 8.
    REMARKS: TOTAL CAPACITY OF DISCHARGE 14950 LT/MIN REF. AIP
    COLOMBIA SKCL AD 2.6. 02 FEB 21:00 2015 UNTIL PERM. CREATED:
    01 MAR 05:52 2015

SKCL A0283/15 SEQUENCED FLG LGT RWY 01 U/S. 04 FEB 23:10 2015
    UNTIL 04 MAY 23:59 2015 ESTIMATED. CREATED: 04 FEB 23:10
    2015

SKCL A0344/15 AMHS SUBJECT TO INTERRUPTION. 10 FEB 12:15 2015
    UNTIL 13 MAY 23:59 2015 ESTIMATED. CREATED: 10 FEB 12:20
    2015

SKCL A0417/15 MOV AREA NO VERTICAL SIGNALLING, EXER CTN. H24,
    18 FEB 22:55 2015 UNTIL 31 MAY 11:00 2015. CREATED: 18 FEB
    22:57 2015

SKCL A0933/15 FLIGHT PLAN PROCESSING AND FILING FPL LTD DUE TO
    FAILURE CLO FDP. 08 APR 16:50 2015 UNTIL 08 JUL 23:59 2015
    ESTIMATED. CREATED: 08 APR 16:54 2015

SKCL A0935/15 STAR RNAV (GNSS) ISAD1B, OREG1B RWY 19 NO AVBL
    REF. AIP SKCL STAR 9. H24, 08 APR 18:00 2015 UNTIL PERM.
    CREATED: 08 APR 18:07 2015

SKCL A0951/15 INTL APN LTD, RESTRICTED OPS ACFT GEN AVIATION
    DAYS TUE, THU Y SAT, GEN AVIATION WIL BE RELOCATED IN DESCONGESTION
    APN AND CARGO APN. NOTE: CREW MUST INFORM TO CECOA WHEN OVERNIGHT
    WILL BE PRETEND AND DEPARTURE DATE. 09 APR 20:00 2015 UNTIL
    31 JUL 23:59 2015. CREATED: 09 APR 16:54 2015

SKCL A1047/15 TWY A BTN TWY C AND TWY D CLSD. H24, 02 MAY 00:00
    2015 UNTIL 17 MAY 23:59 2015. CREATED: 19 APR 22:31 2015

SKCL A1051/15 TWY A,B,C,C1,C2,D,E,F,G WIP, EXER CTN. H24, 19
    APR 22:30 2015 UNTIL 31 JUL 23:59 2015. CREATED: 19 APR 22:33
    2015

SKCL V0003/15 [DOD PROCEDURAL NOTAM] INSTRUMENT APPROACH PROCEDURE
    NOT AUTHORIZED: ILS RWY 01 AMDT 1, VOR RWY 19 ORIG, ANKIN
    5A, 5B DEP, BUN 6A DEP, BUN 6C DEP NOT AUTHORIZED UFN. 12
    JAN 15:31 2015 UNTIL 30 APR 23:59 2015. CREATED: 12 JAN 15:33
    2015

---------------------------------------------------------------------------